sensor_id;sensor_type;location;lat;lon;timestamp;temperature;humidity
37984;DHT22;64625;50.882;4.376;2022-11-14T00:00:21;8.00;99.90
37984;DHT22;64625;50.882;4.376;2022-11-14T00:02:47;8.00;99.90
37984;DHT22;64625;50.882;4.376;2022-11-14T00:05:12;8.00;99.90
37984;DHT22;64625;50.882;4.376;2022-11-14T00:07:38;8.00;99.90
37984;DHT22;64625;50.882;4.376;2022-11-14T00:10:05;7.90;99.90
37984;DHT22;64625;50.882;4.376;2022-11-14T00:12:31;7.90;99.90
37984;DHT22;64625;50.882;4.376;2022-11-14T00:14:56;7.90;99.90
37984;DHT22;64625;50.882;4.376;2022-11-14T00:17:22;7.90;99.90
37984;DHT22;64625;50.882;4.376;2022-11-14T00:19:48;7.90;99.90
37984;DHT22;64625;50.882;4.376;2022-11-14T00:22:14;7.90;99.90
37984;DHT22;64625;50.882;4.376;2022-11-14T00:24:39;7.80;99.90
37984;DHT22;64625;50.882;4.376;2022-11-14T00:27:05;7.80;99.90
37984;DHT22;64625;50.882;4.376;2022-11-14T00:29:31;7.80;99.90
37984;DHT22;64625;50.882;4.376;2022-11-14T00:31:57;7.80;99.90
37984;DHT22;64625;50.882;4.376;2022-11-14T00:34:22;7.70;99.90
37984;DHT22;64625;50.882;4.376;2022-11-14T00:36:48;7.70;99.90
37984;DHT22;64625;50.882;4.376;2022-11-14T00:39:14;7.70;99.90
37984;DHT22;64625;50.882;4.376;2022-11-14T00:41:41;7.70;99.90
37984;DHT22;64625;50.882;4.376;2022-11-14T00:44:07;7.70;99.90
37984;DHT22;64625;50.882;4.376;2022-11-14T00:46:33;7.70;99.90
37984;DHT22;64625;50.882;4.376;2022-11-14T00:48:59;7.70;99.90
37984;DHT22;64625;50.882;4.376;2022-11-14T00:51:25;7.70;99.90
37984;DHT22;64625;50.882;4.376;2022-11-14T00:53:52;7.60;99.90
37984;DHT22;64625;50.882;4.376;2022-11-14T00:56:18;7.60;99.90
37984;DHT22;64625;50.882;4.376;2022-11-14T00:58:43;7.60;99.90
37984;DHT22;64625;50.882;4.376;2022-11-14T01:01:09;7.60;99.90
37984;DHT22;64625;50.882;4.376;2022-11-14T01:03:35;7.50;99.90
37984;DHT22;64625;50.882;4.376;2022-11-14T01:06:06;7.50;99.90
37984;DHT22;64625;50.882;4.376;2022-11-14T01:08:32;7.50;99.90
37984;DHT22;64625;50.882;4.376;2022-11-14T01:10:59;7.40;99.90
37984;DHT22;64625;50.882;4.376;2022-11-14T01:13:25;7.40;99.90
37984;DHT22;64625;50.882;4.376;2022-11-14T01:15:51;7.40;99.90
37984;DHT22;64625;50.882;4.376;2022-11-14T01:18:20;7.40;99.90
37984;DHT22;64625;50.882;4.376;2022-11-14T01:20:47;7.40;99.90
37984;DHT22;64625;50.882;4.376;2022-11-14T01:23:15;7.40;99.90
37984;DHT22;64625;50.882;4.376;2022-11-14T01:25:42;7.40;99.90
37984;DHT22;64625;50.882;4.376;2022-11-14T01:28:10;7.40;99.90
37984;DHT22;64625;50.882;4.376;2022-11-14T01:30:37;7.30;99.90
37984;DHT22;64625;50.882;4.376;2022-11-14T01:33:04;7.30;99.90
37984;DHT22;64625;50.882;4.376;2022-11-14T01:35:34;7.30;99.90
37984;DHT22;64625;50.882;4.376;2022-11-14T01:38:03;7.20;99.90
37984;DHT22;64625;50.882;4.376;2022-11-14T01:40:31;7.20;99.90
37984;DHT22;64625;50.882;4.376;2022-11-14T01:48:41;7.20;99.90
37984;DHT22;64625;50.882;4.376;2022-11-14T01:53:54;7.10;99.90
37984;DHT22;64625;50.882;4.376;2022-11-14T01:56:27;7.10;99.90
37984;DHT22;64625;50.882;4.376;2022-11-14T01:59:00;7.10;99.90
37984;DHT22;64625;50.882;4.376;2022-11-14T02:01:29;7.10;99.90
37984;DHT22;64625;50.882;4.376;2022-11-14T02:03:56;7.10;99.90
37984;DHT22;64625;50.882;4.376;2022-11-14T02:06:26;7.10;99.90
37984;DHT22;64625;50.882;4.376;2022-11-14T02:08:54;7.00;99.90
37984;DHT22;64625;50.882;4.376;2022-11-14T02:11:21;7.00;99.90
37984;DHT22;64625;50.882;4.376;2022-11-14T02:13:46;7.00;99.90
37984;DHT22;64625;50.882;4.376;2022-11-14T02:16:12;7.00;99.90
37984;DHT22;64625;50.882;4.376;2022-11-14T02:18:38;7.00;99.90
37984;DHT22;64625;50.882;4.376;2022-11-14T02:21:04;7.00;99.90
37984;DHT22;64625;50.882;4.376;2022-11-14T02:23:31;6.90;99.90
37984;DHT22;64625;50.882;4.376;2022-11-14T02:25:57;6.90;99.90
37984;DHT22;64625;50.882;4.376;2022-11-14T02:28:24;6.90;99.90
37984;DHT22;64625;50.882;4.376;2022-11-14T02:30:50;6.90;99.90
37984;DHT22;64625;50.882;4.376;2022-11-14T02:33:16;6.90;99.90
37984;DHT22;64625;50.882;4.376;2022-11-14T02:35:42;6.90;99.90
37984;DHT22;64625;50.882;4.376;2022-11-14T02:38:08;6.90;99.90
37984;DHT22;64625;50.882;4.376;2022-11-14T02:40:33;6.90;99.90
37984;DHT22;64625;50.882;4.376;2022-11-14T02:42:59;6.80;99.90
37984;DHT22;64625;50.882;4.376;2022-11-14T02:45:26;6.80;99.90
37984;DHT22;64625;50.882;4.376;2022-11-14T02:47:52;6.80;99.90
37984;DHT22;64625;50.882;4.376;2022-11-14T02:50:17;6.80;99.90
37984;DHT22;64625;50.882;4.376;2022-11-14T02:52:43;6.80;99.90
37984;DHT22;64625;50.882;4.376;2022-11-14T02:55:09;6.70;99.90
37984;DHT22;64625;50.882;4.376;2022-11-14T02:57:35;6.70;99.90
37984;DHT22;64625;50.882;4.376;2022-11-14T03:00:01;6.70;99.90
37984;DHT22;64625;50.882;4.376;2022-11-14T03:02:27;6.70;99.90
37984;DHT22;64625;50.882;4.376;2022-11-14T03:04:53;6.70;99.90
37984;DHT22;64625;50.882;4.376;2022-11-14T03:07:18;6.70;99.90
37984;DHT22;64625;50.882;4.376;2022-11-14T03:09:44;6.70;99.90
37984;DHT22;64625;50.882;4.376;2022-11-14T03:12:10;6.60;99.90
37984;DHT22;64625;50.882;4.376;2022-11-14T03:14:35;6.60;99.90
37984;DHT22;64625;50.882;4.376;2022-11-14T03:17:01;6.60;99.90
37984;DHT22;64625;50.882;4.376;2022-11-14T03:19:27;6.60;99.90
37984;DHT22;64625;50.882;4.376;2022-11-14T03:21:53;6.60;99.90
37984;DHT22;64625;50.882;4.376;2022-11-14T03:24:19;6.60;99.90
37984;DHT22;64625;50.882;4.376;2022-11-14T03:26:44;6.50;99.90
37984;DHT22;64625;50.882;4.376;2022-11-14T03:29:10;6.50;99.90
37984;DHT22;64625;50.882;4.376;2022-11-14T03:31:36;6.50;99.90
37984;DHT22;64625;50.882;4.376;2022-11-14T03:34:01;6.50;99.90
37984;DHT22;64625;50.882;4.376;2022-11-14T03:36:27;6.50;99.90
37984;DHT22;64625;50.882;4.376;2022-11-14T03:38:53;6.50;99.90
37984;DHT22;64625;50.882;4.376;2022-11-14T03:41:19;6.50;99.90
37984;DHT22;64625;50.882;4.376;2022-11-14T03:43:44;6.50;99.90
37984;DHT22;64625;50.882;4.376;2022-11-14T03:46:10;6.50;99.90
37984;DHT22;64625;50.882;4.376;2022-11-14T03:48:36;6.50;99.90
37984;DHT22;64625;50.882;4.376;2022-11-14T03:51:02;6.50;99.90
37984;DHT22;64625;50.882;4.376;2022-11-14T03:53:27;6.50;99.90
37984;DHT22;64625;50.882;4.376;2022-11-14T03:55:53;6.50;99.90
37984;DHT22;64625;50.882;4.376;2022-11-14T03:58:19;6.40;99.90
37984;DHT22;64625;50.882;4.376;2022-11-14T04:00:45;6.40;99.90
37984;DHT22;64625;50.882;4.376;2022-11-14T04:03:11;6.40;99.90
37984;DHT22;64625;50.882;4.376;2022-11-14T04:05:36;6.40;99.90
37984;DHT22;64625;50.882;4.376;2022-11-14T04:08:06;6.40;99.90
37984;DHT22;64625;50.882;4.376;2022-11-14T04:10:37;6.40;99.90
37984;DHT22;64625;50.882;4.376;2022-11-14T04:13:04;6.40;99.90
37984;DHT22;64625;50.882;4.376;2022-11-14T04:15:29;6.40;99.90
37984;DHT22;64625;50.882;4.376;2022-11-14T04:17:55;6.40;99.90
37984;DHT22;64625;50.882;4.376;2022-11-14T04:20:21;6.30;99.90
37984;DHT22;64625;50.882;4.376;2022-11-14T04:22:47;6.30;99.90
37984;DHT22;64625;50.882;4.376;2022-11-14T04:25:12;6.30;99.90
37984;DHT22;64625;50.882;4.376;2022-11-14T04:27:38;6.30;99.90
37984;DHT22;64625;50.882;4.376;2022-11-14T04:30:05;6.20;99.90
37984;DHT22;64625;50.882;4.376;2022-11-14T04:32:31;6.20;99.90
37984;DHT22;64625;50.882;4.376;2022-11-14T04:34:57;6.20;99.90
37984;DHT22;64625;50.882;4.376;2022-11-14T04:37:23;6.20;99.90
37984;DHT22;64625;50.882;4.376;2022-11-14T04:39:49;6.20;99.90
37984;DHT22;64625;50.882;4.376;2022-11-14T04:42:15;6.20;99.90
37984;DHT22;64625;50.882;4.376;2022-11-14T04:44:42;6.20;99.90
37984;DHT22;64625;50.882;4.376;2022-11-14T04:47:08;6.20;99.90
37984;DHT22;64625;50.882;4.376;2022-11-14T04:49:34;6.10;99.90
37984;DHT22;64625;50.882;4.376;2022-11-14T04:52:00;6.10;99.90
37984;DHT22;64625;50.882;4.376;2022-11-14T04:54:25;6.10;99.90
37984;DHT22;64625;50.882;4.376;2022-11-14T04:56:51;6.10;99.90
37984;DHT22;64625;50.882;4.376;2022-11-14T04:59:17;6.10;99.90
37984;DHT22;64625;50.882;4.376;2022-11-14T05:01:43;6.10;99.90
37984;DHT22;64625;50.882;4.376;2022-11-14T05:04:08;6.10;99.90
37984;DHT22;64625;50.882;4.376;2022-11-14T05:06:34;6.10;99.90
37984;DHT22;64625;50.882;4.376;2022-11-14T05:09:00;6.00;99.90
37984;DHT22;64625;50.882;4.376;2022-11-14T05:11:25;6.10;99.90
37984;DHT22;64625;50.882;4.376;2022-11-14T05:13:51;6.10;99.90
37984;DHT22;64625;50.882;4.376;2022-11-14T05:16:17;6.00;99.90
37984;DHT22;64625;50.882;4.376;2022-11-14T05:18:43;6.10;99.90
37984;DHT22;64625;50.882;4.376;2022-11-14T05:21:13;6.00;99.90
37984;DHT22;64625;50.882;4.376;2022-11-14T05:23:39;6.10;99.90
37984;DHT22;64625;50.882;4.376;2022-11-14T05:26:07;6.00;99.90
37984;DHT22;64625;50.882;4.376;2022-11-14T05:28:33;6.00;99.90
37984;DHT22;64625;50.882;4.376;2022-11-14T05:31:08;6.00;99.90
37984;DHT22;64625;50.882;4.376;2022-11-14T05:33:34;6.00;99.90
37984;DHT22;64625;50.882;4.376;2022-11-14T05:36:05;6.00;99.90
37984;DHT22;64625;50.882;4.376;2022-11-14T05:38:32;6.00;99.90
37984;DHT22;64625;50.882;4.376;2022-11-14T05:40:58;6.00;99.90
37984;DHT22;64625;50.882;4.376;2022-11-14T05:43:24;6.00;99.90
37984;DHT22;64625;50.882;4.376;2022-11-14T05:45:57;6.00;99.90
37984;DHT22;64625;50.882;4.376;2022-11-14T05:48:24;6.00;99.90
37984;DHT22;64625;50.882;4.376;2022-11-14T05:50:54;6.00;99.90
37984;DHT22;64625;50.882;4.376;2022-11-14T05:53:20;5.90;99.90
37984;DHT22;64625;50.882;4.376;2022-11-14T05:55:45;5.90;99.90
37984;DHT22;64625;50.882;4.376;2022-11-14T05:58:11;5.90;99.90
37984;DHT22;64625;50.882;4.376;2022-11-14T06:00:37;6.00;99.90
37984;DHT22;64625;50.882;4.376;2022-11-14T06:03:03;5.90;99.90
37984;DHT22;64625;50.882;4.376;2022-11-14T06:05:29;5.90;99.90
37984;DHT22;64625;50.882;4.376;2022-11-14T06:07:56;5.90;99.90
37984;DHT22;64625;50.882;4.376;2022-11-14T06:10:23;5.90;99.90
37984;DHT22;64625;50.882;4.376;2022-11-14T06:12:52;5.90;99.90
37984;DHT22;64625;50.882;4.376;2022-11-14T06:15:18;5.90;99.90
37984;DHT22;64625;50.882;4.376;2022-11-14T06:17:45;5.90;99.90
37984;DHT22;64625;50.882;4.376;2022-11-14T06:20:11;5.90;99.90
37984;DHT22;64625;50.882;4.376;2022-11-14T06:22:45;5.90;99.90
37984;DHT22;64625;50.882;4.376;2022-11-14T06:25:11;5.90;99.90
37984;DHT22;64625;50.882;4.376;2022-11-14T06:27:37;5.90;99.90
37984;DHT22;64625;50.882;4.376;2022-11-14T06:30:03;5.90;99.90
37984;DHT22;64625;50.882;4.376;2022-11-14T06:32:29;5.80;99.90
37984;DHT22;64625;50.882;4.376;2022-11-14T06:34:55;5.80;99.90
37984;DHT22;64625;50.882;4.376;2022-11-14T06:37:21;5.80;99.90
37984;DHT22;64625;50.882;4.376;2022-11-14T06:39:46;5.90;99.90
37984;DHT22;64625;50.882;4.376;2022-11-14T06:42:14;5.80;99.90
37984;DHT22;64625;50.882;4.376;2022-11-14T06:44:40;5.80;99.90
37984;DHT22;64625;50.882;4.376;2022-11-14T06:47:06;5.80;99.90
37984;DHT22;64625;50.882;4.376;2022-11-14T06:49:32;5.80;99.90
37984;DHT22;64625;50.882;4.376;2022-11-14T06:51:58;5.80;99.90
37984;DHT22;64625;50.882;4.376;2022-11-14T06:54:23;5.80;99.90
37984;DHT22;64625;50.882;4.376;2022-11-14T06:56:49;5.90;99.90
37984;DHT22;64625;50.882;4.376;2022-11-14T06:59:15;5.80;99.90
37984;DHT22;64625;50.882;4.376;2022-11-14T07:01:41;5.80;99.90
37984;DHT22;64625;50.882;4.376;2022-11-14T07:04:08;5.80;99.90
37984;DHT22;64625;50.882;4.376;2022-11-14T07:06:34;5.80;99.90
37984;DHT22;64625;50.882;4.376;2022-11-14T07:09:00;5.80;99.90
37984;DHT22;64625;50.882;4.376;2022-11-14T07:11:27;5.80;99.90
37984;DHT22;64625;50.882;4.376;2022-11-14T07:13:55;5.80;99.90
37984;DHT22;64625;50.882;4.376;2022-11-14T07:16:33;5.80;99.90
37984;DHT22;64625;50.882;4.376;2022-11-14T07:19:05;5.80;99.90
37984;DHT22;64625;50.882;4.376;2022-11-14T07:21:33;5.80;99.90
37984;DHT22;64625;50.882;4.376;2022-11-14T07:23:59;5.80;99.90
37984;DHT22;64625;50.882;4.376;2022-11-14T07:26:25;5.80;99.90
37984;DHT22;64625;50.882;4.376;2022-11-14T07:28:51;5.80;99.90
37984;DHT22;64625;50.882;4.376;2022-11-14T07:31:18;5.80;99.90
37984;DHT22;64625;50.882;4.376;2022-11-14T07:33:46;5.80;99.90
37984;DHT22;64625;50.882;4.376;2022-11-14T07:36:13;5.80;99.90
37984;DHT22;64625;50.882;4.376;2022-11-14T07:38:39;5.80;99.90
37984;DHT22;64625;50.882;4.376;2022-11-14T07:41:11;5.80;99.90
37984;DHT22;64625;50.882;4.376;2022-11-14T07:43:37;5.80;99.90
37984;DHT22;64625;50.882;4.376;2022-11-14T07:46:12;5.80;99.90
37984;DHT22;64625;50.882;4.376;2022-11-14T07:48:38;5.80;99.90
37984;DHT22;64625;50.882;4.376;2022-11-14T07:51:05;5.80;99.90
37984;DHT22;64625;50.882;4.376;2022-11-14T07:53:32;5.80;99.90
37984;DHT22;64625;50.882;4.376;2022-11-14T07:56:06;5.90;99.90
37984;DHT22;64625;50.882;4.376;2022-11-14T07:58:37;5.90;99.90
37984;DHT22;64625;50.882;4.376;2022-11-14T08:01:05;5.90;99.90
37984;DHT22;64625;50.882;4.376;2022-11-14T08:03:32;5.90;99.90
37984;DHT22;64625;50.882;4.376;2022-11-14T08:06:02;5.90;99.90
37984;DHT22;64625;50.882;4.376;2022-11-14T08:08:28;5.90;99.90
37984;DHT22;64625;50.882;4.376;2022-11-14T08:10:58;5.90;99.90
37984;DHT22;64625;50.882;4.376;2022-11-14T08:13:25;5.90;99.90
37984;DHT22;64625;50.882;4.376;2022-11-14T08:15:51;5.90;99.90
37984;DHT22;64625;50.882;4.376;2022-11-14T08:18:17;6.00;99.90
37984;DHT22;64625;50.882;4.376;2022-11-14T08:20:46;6.00;99.90
37984;DHT22;64625;50.882;4.376;2022-11-14T08:23:14;6.00;99.90
37984;DHT22;64625;50.882;4.376;2022-11-14T08:25:41;6.00;99.90
37984;DHT22;64625;50.882;4.376;2022-11-14T08:28:07;6.10;99.90
37984;DHT22;64625;50.882;4.376;2022-11-14T08:30:34;6.10;99.90
37984;DHT22;64625;50.882;4.376;2022-11-14T08:33:04;6.10;99.90
37984;DHT22;64625;50.882;4.376;2022-11-14T08:35:32;6.20;99.90
37984;DHT22;64625;50.882;4.376;2022-11-14T08:37:59;6.20;99.90
37984;DHT22;64625;50.882;4.376;2022-11-14T08:40:25;6.20;99.90
37984;DHT22;64625;50.882;4.376;2022-11-14T08:42:51;6.30;99.90
37984;DHT22;64625;50.882;4.376;2022-11-14T08:45:17;6.30;99.90
37984;DHT22;64625;50.882;4.376;2022-11-14T08:47:50;6.30;99.90
37984;DHT22;64625;50.882;4.376;2022-11-14T08:50:17;6.40;99.90
37984;DHT22;64625;50.882;4.376;2022-11-14T08:52:42;6.50;99.90
37984;DHT22;64625;50.882;4.376;2022-11-14T08:55:13;6.60;99.90
37984;DHT22;64625;50.882;4.376;2022-11-14T08:57:39;6.60;99.90
37984;DHT22;64625;50.882;4.376;2022-11-14T09:00:05;6.70;99.90
37984;DHT22;64625;50.882;4.376;2022-11-14T09:02:34;6.70;99.90
37984;DHT22;64625;50.882;4.376;2022-11-14T09:05:00;6.80;99.90
37984;DHT22;64625;50.882;4.376;2022-11-14T09:07:26;6.90;99.90
37984;DHT22;64625;50.882;4.376;2022-11-14T09:09:53;7.00;99.90
37984;DHT22;64625;50.882;4.376;2022-11-14T09:12:19;7.10;99.90
37984;DHT22;64625;50.882;4.376;2022-11-14T09:14:45;7.10;99.90
37984;DHT22;64625;50.882;4.376;2022-11-14T09:17:13;7.20;99.90
37984;DHT22;64625;50.882;4.376;2022-11-14T09:19:39;7.30;99.90
37984;DHT22;64625;50.882;4.376;2022-11-14T09:22:06;7.40;99.90
37984;DHT22;64625;50.882;4.376;2022-11-14T09:24:32;7.40;99.90
37984;DHT22;64625;50.882;4.376;2022-11-14T09:26:57;7.50;99.90
37984;DHT22;64625;50.882;4.376;2022-11-14T09:29:26;7.60;99.90
37984;DHT22;64625;50.882;4.376;2022-11-14T09:31:52;7.70;99.90
37984;DHT22;64625;50.882;4.376;2022-11-14T09:34:19;7.80;99.90
37984;DHT22;64625;50.882;4.376;2022-11-14T09:36:45;7.80;99.90
37984;DHT22;64625;50.882;4.376;2022-11-14T09:39:11;7.90;99.90
37984;DHT22;64625;50.882;4.376;2022-11-14T09:42:05;7.90;99.90
37984;DHT22;64625;50.882;4.376;2022-11-14T09:44:57;8.10;99.90
37984;DHT22;64625;50.882;4.376;2022-11-14T09:47:37;8.10;99.90
37984;DHT22;64625;50.882;4.376;2022-11-14T09:52:39;8.20;99.90
37984;DHT22;64625;50.882;4.376;2022-11-14T09:55:20;8.30;99.90
37984;DHT22;64625;50.882;4.376;2022-11-14T09:57:47;8.40;99.90
37984;DHT22;64625;50.882;4.376;2022-11-14T10:00:21;8.50;99.90
37984;DHT22;64625;50.882;4.376;2022-11-14T10:05:41;8.60;99.90
37984;DHT22;64625;50.882;4.376;2022-11-14T10:11:03;8.80;99.90
37984;DHT22;64625;50.882;4.376;2022-11-14T10:16:43;9.00;99.90
37984;DHT22;64625;50.882;4.376;2022-11-14T10:39:30;9.60;99.90
37984;DHT22;64625;50.882;4.376;2022-11-14T10:42:01;9.70;99.90
37984;DHT22;64625;50.882;4.376;2022-11-14T10:44:49;9.70;99.90
37984;DHT22;64625;50.882;4.376;2022-11-14T10:47:20;9.80;99.90
37984;DHT22;64625;50.882;4.376;2022-11-14T10:49:50;9.90;99.90
37984;DHT22;64625;50.882;4.376;2022-11-14T10:52:24;9.90;99.90
37984;DHT22;64625;50.882;4.376;2022-11-14T10:54:57;10.00;99.90
37984;DHT22;64625;50.882;4.376;2022-11-14T10:57:26;10.10;99.90
37984;DHT22;64625;50.882;4.376;2022-11-14T10:59:53;10.20;99.90
37984;DHT22;64625;50.882;4.376;2022-11-14T11:02:20;10.30;99.90
37984;DHT22;64625;50.882;4.376;2022-11-14T11:04:46;10.30;99.90
37984;DHT22;64625;50.882;4.376;2022-11-14T11:07:21;10.30;99.90
37984;DHT22;64625;50.882;4.376;2022-11-14T11:10:06;10.40;99.90
37984;DHT22;64625;50.882;4.376;2022-11-14T11:12:53;10.40;99.90
37984;DHT22;64625;50.882;4.376;2022-11-14T11:15:24;10.50;99.90
37984;DHT22;64625;50.882;4.376;2022-11-14T11:20:41;10.50;99.90
37984;DHT22;64625;50.882;4.376;2022-11-14T11:25:37;10.50;99.90
37984;DHT22;64625;50.882;4.376;2022-11-14T11:28:20;10.60;99.90
37984;DHT22;64625;50.882;4.376;2022-11-14T11:30:57;10.60;99.90
37984;DHT22;64625;50.882;4.376;2022-11-14T11:33:29;10.60;99.90
37984;DHT22;64625;50.882;4.376;2022-11-14T11:38:41;10.50;99.90
37984;DHT22;64625;50.882;4.376;2022-11-14T11:43:56;10.50;99.90
37984;DHT22;64625;50.882;4.376;2022-11-14T11:49:21;10.60;99.90
37984;DHT22;64625;50.882;4.376;2022-11-14T11:51:50;10.60;99.90
37984;DHT22;64625;50.882;4.376;2022-11-14T11:54:18;10.60;99.90
37984;DHT22;64625;50.882;4.376;2022-11-14T11:56:50;10.60;99.90
37984;DHT22;64625;50.882;4.376;2022-11-14T12:00:05;10.60;99.90
37984;DHT22;64625;50.882;4.376;2022-11-14T12:02:31;10.60;99.90
37984;DHT22;64625;50.882;4.376;2022-11-14T12:04:58;10.60;99.90
37984;DHT22;64625;50.882;4.376;2022-11-14T12:07:39;10.60;99.90
37984;DHT22;64625;50.882;4.376;2022-11-14T12:10:17;10.70;99.90
37984;DHT22;64625;50.882;4.376;2022-11-14T12:21:17;10.60;99.90
37984;DHT22;64625;50.882;4.376;2022-11-14T12:27:02;10.70;99.90
37984;DHT22;64625;50.882;4.376;2022-11-14T12:32:56;10.80;99.90
37984;DHT22;64625;50.882;4.376;2022-11-14T12:35:31;10.80;99.90
37984;DHT22;64625;50.882;4.376;2022-11-14T12:37:59;10.90;99.90
37984;DHT22;64625;50.882;4.376;2022-11-14T12:40:37;10.90;99.90
37984;DHT22;64625;50.882;4.376;2022-11-14T12:50:54;11.10;99.90
37984;DHT22;64625;50.882;4.376;2022-11-14T12:53:37;11.10;99.90
37984;DHT22;64625;50.882;4.376;2022-11-14T13:07:15;10.80;99.90
37984;DHT22;64625;50.882;4.376;2022-11-14T13:09:58;10.70;99.90
37984;DHT22;64625;50.882;4.376;2022-11-14T13:12:29;10.70;99.90
37984;DHT22;64625;50.882;4.376;2022-11-14T13:15:34;10.60;99.90
37984;DHT22;64625;50.882;4.376;2022-11-14T13:21:28;10.50;99.90
37984;DHT22;64625;50.882;4.376;2022-11-14T13:24:14;10.60;99.90
37984;DHT22;64625;50.882;4.376;2022-11-14T13:26:49;10.60;99.90
37984;DHT22;64625;50.882;4.376;2022-11-14T13:41:19;10.40;99.90
37984;DHT22;64625;50.882;4.376;2022-11-14T13:44:25;10.40;99.90
37984;DHT22;64625;50.882;4.376;2022-11-14T13:52:13;10.30;99.90
37984;DHT22;64625;50.882;4.376;2022-11-14T13:54:58;10.30;99.90
37984;DHT22;64625;50.882;4.376;2022-11-14T14:00:14;10.30;99.90
37984;DHT22;64625;50.882;4.376;2022-11-14T14:03:06;10.30;99.90
37984;DHT22;64625;50.882;4.376;2022-11-14T14:09:16;10.20;99.90
37984;DHT22;64625;50.882;4.376;2022-11-14T14:31:18;10.00;99.90
37984;DHT22;64625;50.882;4.376;2022-11-14T14:33:52;10.00;99.90
37984;DHT22;64625;50.882;4.376;2022-11-14T14:36:26;10.00;99.90
37984;DHT22;64625;50.882;4.376;2022-11-14T14:39:31;9.90;99.90
37984;DHT22;64625;50.882;4.376;2022-11-14T14:41:57;9.90;99.90
37984;DHT22;64625;50.882;4.376;2022-11-14T14:44:27;9.90;99.90
37984;DHT22;64625;50.882;4.376;2022-11-14T14:46:57;9.90;99.90
37984;DHT22;64625;50.882;4.376;2022-11-14T14:49:33;9.90;99.90
37984;DHT22;64625;50.882;4.376;2022-11-14T14:52:24;9.90;99.90
37984;DHT22;64625;50.882;4.376;2022-11-14T14:54:54;9.90;99.90
37984;DHT22;64625;50.882;4.376;2022-11-14T14:57:20;9.80;99.90
37984;DHT22;64625;50.882;4.376;2022-11-14T14:59:58;9.80;99.90
37984;DHT22;64625;50.882;4.376;2022-11-14T15:02:24;9.80;99.90
37984;DHT22;64625;50.882;4.376;2022-11-14T15:04:51;9.80;99.90
37984;DHT22;64625;50.882;4.376;2022-11-14T15:07:39;9.80;99.90
37984;DHT22;64625;50.882;4.376;2022-11-14T15:10:06;9.80;99.90
37984;DHT22;64625;50.882;4.376;2022-11-14T15:12:33;9.80;99.90
37984;DHT22;64625;50.882;4.376;2022-11-14T15:15:00;9.80;99.90
37984;DHT22;64625;50.882;4.376;2022-11-14T15:17:27;9.70;99.90
37984;DHT22;64625;50.882;4.376;2022-11-14T15:19:53;9.70;99.90
37984;DHT22;64625;50.882;4.376;2022-11-14T15:22:22;9.70;99.90
37984;DHT22;64625;50.882;4.376;2022-11-14T15:27:47;9.70;99.90
37984;DHT22;64625;50.882;4.376;2022-11-14T15:30:26;9.70;99.90
37984;DHT22;64625;50.882;4.376;2022-11-14T15:32:56;9.70;99.90
37984;DHT22;64625;50.882;4.376;2022-11-14T15:35:49;9.70;99.90
37984;DHT22;64625;50.882;4.376;2022-11-14T15:38:29;9.70;99.90
37984;DHT22;64625;50.882;4.376;2022-11-14T15:41:23;9.70;99.90
37984;DHT22;64625;50.882;4.376;2022-11-14T15:43:51;9.70;99.90
37984;DHT22;64625;50.882;4.376;2022-11-14T15:49:21;9.70;99.90
37984;DHT22;64625;50.882;4.376;2022-11-14T15:56:45;9.70;99.90
37984;DHT22;64625;50.882;4.376;2022-11-14T15:59:11;9.70;99.90
37984;DHT22;64625;50.882;4.376;2022-11-14T16:01:37;9.70;99.90
37984;DHT22;64625;50.882;4.376;2022-11-14T16:04:04;9.60;99.90
37984;DHT22;64625;50.882;4.376;2022-11-14T16:06:31;9.60;99.90
37984;DHT22;64625;50.882;4.376;2022-11-14T16:08:57;9.60;99.90
37984;DHT22;64625;50.882;4.376;2022-11-14T16:11:23;9.50;99.90
37984;DHT22;64625;50.882;4.376;2022-11-14T16:13:49;9.50;99.90
37984;DHT22;64625;50.882;4.376;2022-11-14T16:16:14;9.50;99.90
37984;DHT22;64625;50.882;4.376;2022-11-14T16:18:40;9.50;99.90
37984;DHT22;64625;50.882;4.376;2022-11-14T16:21:12;9.50;99.90
37984;DHT22;64625;50.882;4.376;2022-11-14T16:23:40;9.50;99.90
37984;DHT22;64625;50.882;4.376;2022-11-14T16:26:06;9.50;99.90
37984;DHT22;64625;50.882;4.376;2022-11-14T16:28:32;9.50;99.90
37984;DHT22;64625;50.882;4.376;2022-11-14T16:30:58;9.50;99.90
37984;DHT22;64625;50.882;4.376;2022-11-14T16:33:23;9.50;99.90
37984;DHT22;64625;50.882;4.376;2022-11-14T16:35:49;9.50;99.90
37984;DHT22;64625;50.882;4.376;2022-11-14T16:38:15;9.50;99.90
37984;DHT22;64625;50.882;4.376;2022-11-14T16:40:43;9.50;99.90
37984;DHT22;64625;50.882;4.376;2022-11-14T16:43:12;9.50;99.90
37984;DHT22;64625;50.882;4.376;2022-11-14T16:45:39;9.50;99.90
37984;DHT22;64625;50.882;4.376;2022-11-14T16:48:05;9.50;99.90
37984;DHT22;64625;50.882;4.376;2022-11-14T16:50:31;9.50;99.90
37984;DHT22;64625;50.882;4.376;2022-11-14T16:52:57;9.40;99.90
37984;DHT22;64625;50.882;4.376;2022-11-14T16:55:23;9.40;99.90
37984;DHT22;64625;50.882;4.376;2022-11-14T16:57:49;9.40;99.90
37984;DHT22;64625;50.882;4.376;2022-11-14T17:00:15;9.40;99.90
37984;DHT22;64625;50.882;4.376;2022-11-14T17:02:41;9.40;99.90
37984;DHT22;64625;50.882;4.376;2022-11-14T17:05:07;9.40;99.90
37984;DHT22;64625;50.882;4.376;2022-11-14T17:07:33;9.40;99.90
37984;DHT22;64625;50.882;4.376;2022-11-14T17:09:59;9.40;99.90
37984;DHT22;64625;50.882;4.376;2022-11-14T17:12:26;9.40;99.90
37984;DHT22;64625;50.882;4.376;2022-11-14T17:14:52;9.40;99.90
37984;DHT22;64625;50.882;4.376;2022-11-14T17:17:19;9.40;99.90
37984;DHT22;64625;50.882;4.376;2022-11-14T17:19:46;9.40;99.90
37984;DHT22;64625;50.882;4.376;2022-11-14T17:22:12;9.40;99.90
37984;DHT22;64625;50.882;4.376;2022-11-14T17:24:38;9.40;99.90
37984;DHT22;64625;50.882;4.376;2022-11-14T17:27:05;9.40;99.90
37984;DHT22;64625;50.882;4.376;2022-11-14T17:29:31;9.40;99.90
37984;DHT22;64625;50.882;4.376;2022-11-14T17:31:56;9.40;99.90
37984;DHT22;64625;50.882;4.376;2022-11-14T17:34:22;9.40;99.90
37984;DHT22;64625;50.882;4.376;2022-11-14T17:36:48;9.40;99.90
37984;DHT22;64625;50.882;4.376;2022-11-14T17:39:14;9.40;99.90
37984;DHT22;64625;50.882;4.376;2022-11-14T17:41:40;9.30;99.90
37984;DHT22;64625;50.882;4.376;2022-11-14T17:44:05;9.30;99.90
37984;DHT22;64625;50.882;4.376;2022-11-14T17:46:31;9.40;99.90
37984;DHT22;64625;50.882;4.376;2022-11-14T17:48:57;9.30;99.90
37984;DHT22;64625;50.882;4.376;2022-11-14T17:51:24;9.30;99.90
37984;DHT22;64625;50.882;4.376;2022-11-14T17:53:55;9.30;99.90
37984;DHT22;64625;50.882;4.376;2022-11-14T17:56:24;9.30;99.90
37984;DHT22;64625;50.882;4.376;2022-11-14T17:58:51;9.20;99.90
37984;DHT22;64625;50.882;4.376;2022-11-14T18:01:20;9.30;99.90
37984;DHT22;64625;50.882;4.376;2022-11-14T18:03:46;9.30;99.90
37984;DHT22;64625;50.882;4.376;2022-11-14T18:06:16;9.30;99.90
37984;DHT22;64625;50.882;4.376;2022-11-14T18:08:42;9.30;99.90
37984;DHT22;64625;50.882;4.376;2022-11-14T18:11:10;9.30;99.90
37984;DHT22;64625;50.882;4.376;2022-11-14T18:13:36;9.30;99.90
37984;DHT22;64625;50.882;4.376;2022-11-14T18:16:04;9.30;99.90
37984;DHT22;64625;50.882;4.376;2022-11-14T18:18:31;9.30;99.90